Time;durP1;ratioP1;P1;durP2;ratioP2;P2;SDS_P1;SDS_P2;PMS_P1;PMS_P2;Temp;Humidity;BMP_temperature;BMP_pressure;BME280_temperature;BME280_humidity;BME280_pressure;Samples;Min_cycle;Max_cycle;Signal;HPM_P1;HPM_P2
2023/09/10 00:00:35;;;;;;;18.67;10.55;;;23.50;99.90;;;;;;4901000;29;20048;-59
2023/09/10 00:03:05;;;;;;;15.95;8.82;;;23.50;99.90;;;;;;4899183;29;20068;-59
2023/09/10 00:05:32;;;;;;;19.50;9.95;;;23.50;99.90;;;;;;4907880;29;20435;-59
2023/09/10 00:08:05;;;;;;;11.82;9.18;;;23.50;99.90;;;;;;4900167;29;20059;-59
2023/09/10 00:10:32;;;;;;;19.83;10.23;;;23.40;99.90;;;;;;4905123;29;20048;-59
2023/09/10 00:13:03;;;;;;;17.38;10.25;;;23.40;99.90;;;;;;4887900;29;20186;-60
2023/09/10 00:15:30;;;;;;;21.33;10.77;;;23.40;99.90;;;;;;4901965;29;20469;-60
2023/09/10 00:17:56;;;;;;;13.63;10.40;;;23.40;99.90;;;;;;4901642;29;20051;-59
2023/09/10 00:20:23;;;;;;;12.68;9.05;;;23.40;99.90;;;;;;4911960;29;20050;-60
2023/09/10 00:22:50;;;;;;;16.50;10.38;;;23.30;99.90;;;;;;4902822;29;20043;-60
2023/09/10 00:25:17;;;;;;;15.60;9.43;;;23.30;99.90;;;;;;4899432;29;20056;-59
2023/09/10 00:27:44;;;;;;;15.52;10.45;;;23.20;99.90;;;;;;4909472;29;20048;-59
2023/09/10 00:30:11;;;;;;;16.13;10.35;;;23.30;99.90;;;;;;4900757;29;20052;-59
2023/09/10 00:32:38;;;;;;;14.73;9.68;;;23.30;99.90;;;;;;4907086;29;20266;-59
2023/09/10 00:35:05;;;;;;;17.17;10.80;;;23.20;99.90;;;;;;4895311;29;20079;-58
2023/09/10 00:37:32;;;;;;;18.42;10.65;;;23.20;99.90;;;;;;4898911;29;20052;-60
2023/09/10 00:39:59;;;;;;;13.57;10.18;;;23.20;99.90;;;;;;4906307;29;20105;-60
2023/09/10 00:42:26;;;;;;;13.60;9.80;;;23.20;99.90;;;;;;4909527;29;20140;-60
2023/09/10 00:44:53;;;;;;;14.18;10.10;;;23.20;99.90;;;;;;4905443;29;20056;-60
2023/09/10 00:47:20;;;;;;;18.02;11.73;;;23.10;99.90;;;;;;4900396;29;20422;-59
2023/09/10 00:49:48;;;;;;;13.80;10.70;;;23.10;99.90;;;;;;4875613;29;20048;-59
2023/09/10 00:52:16;;;;;;;21.52;11.35;;;23.10;99.90;;;;;;4899780;29;20165;-60
2023/09/10 00:54:42;;;;;;;13.00;9.90;;;23.00;99.90;;;;;;4881523;29;20293;-60
2023/09/10 00:57:09;;;;;;;15.07;10.18;;;23.00;99.90;;;;;;4891039;29;20496;-59
2023/09/10 00:59:36;;;;;;;14.00;10.57;;;22.90;99.90;;;;;;4540170;29;10000492;-60
2023/09/10 01:02:03;;;;;;;15.95;10.15;;;22.90;99.90;;;;;;4884084;29;20424;-58
2023/09/10 01:04:30;;;;;;;14.88;9.65;;;23.00;99.90;;;;;;4899485;29;20163;-59
2023/09/10 01:06:57;;;;;;;19.15;9.75;;;22.90;99.90;;;;;;4906965;29;20048;-59
2023/09/10 01:09:24;;;;;;;16.67;11.13;;;22.80;99.90;;;;;;4887576;29;20048;-59
2023/09/10 01:12:17;;;;;;;15.55;10.30;;;22.70;99.90;;;;;;4897845;29;20044;-60
2023/09/10 01:15:05;;;;;;;12.43;9.63;;;22.60;99.90;;;;;;4902726;29;20116;-59
2023/09/10 01:18:01;;;;;;;11.35;9.90;;;22.60;99.90;;;;;;4885015;29;20059;-59
2023/09/10 01:20:52;;;;;;;13.05;9.60;;;22.60;99.90;;;;;;4880704;29;20059;-60
2023/09/10 01:23:31;;;;;;;12.88;8.88;;;22.60;99.90;;;;;;4908321;29;20092;-59
2023/09/10 01:25:57;;;;;;;15.27;9.48;;;22.60;99.90;;;;;;4907745;29;20060;-60
2023/09/10 01:28:24;;;;;;;11.60;9.07;;;22.50;99.90;;;;;;4875829;29;20143;-59
2023/09/10 01:30:51;;;;;;;16.52;9.75;;;22.50;99.90;;;;;;4905327;29;20143;-60
2023/09/10 01:33:30;;;;;;;13.27;10.05;;;22.50;99.90;;;;;;4894340;29;20064;-60
2023/09/10 01:36:17;;;;;;;12.73;9.50;;;22.50;99.90;;;;;;4892064;29;20052;-60
2023/09/10 01:38:45;;;;;;;13.65;10.52;;;22.40;99.90;;;;;;4891581;29;20048;-60
2023/09/10 01:41:16;;;;;;;13.95;9.52;;;22.40;99.90;;;;;;4904534;29;20051;-58
2023/09/10 01:43:43;;;;;;;17.48;10.50;;;22.40;99.90;;;;;;4909274;29;20047;-59
2023/09/10 01:46:10;;;;;;;15.52;11.00;;;22.30;99.90;;;;;;4889325;29;20075;-60
2023/09/10 01:48:37;;;;;;;14.20;11.35;;;22.30;99.90;;;;;;4878439;29;20091;-60
2023/09/10 01:51:04;;;;;;;17.23;10.10;;;22.20;99.90;;;;;;4887761;29;20123;-58
2023/09/10 01:53:31;;;;;;;13.00;10.50;;;22.20;99.90;;;;;;4902187;29;20048;-60
2023/09/10 01:55:58;;;;;;;18.08;10.40;;;22.10;99.90;;;;;;4901201;29;20071;-60
2023/09/10 01:58:25;;;;;;;15.20;10.07;;;22.10;99.90;;;;;;4895884;29;20044;-60
2023/09/10 02:00:51;;;;;;;15.82;9.82;;;22.10;99.90;;;;;;4902838;29;20048;-60
2023/09/10 02:03:19;;;;;;;12.82;10.10;;;22.00;99.90;;;;;;4907996;29;20080;-60
2023/09/10 02:05:46;;;;;;;15.32;10.68;;;22.00;99.90;;;;;;4897891;29;20460;-60
2023/09/10 02:08:14;;;;;;;14.27;10.38;;;22.10;99.90;;;;;;4900420;29;20105;-60
2023/09/10 02:10:42;;;;;;;13.63;10.18;;;22.10;99.90;;;;;;4898514;29;20067;-59
2023/09/10 02:13:09;;;;;;;17.77;10.55;;;22.10;99.90;;;;;;4905836;29;20131;-60
2023/09/10 02:15:36;;;;;;;14.27;10.70;;;22.00;99.90;;;;;;4907427;29;20048;-61
2023/09/10 02:18:03;;;;;;;23.50;11.32;;;22.00;99.90;;;;;;4556865;29;10000372;-60
2023/09/10 02:20:37;;;;;;;15.10;10.30;;;22.00;99.90;;;;;;4906594;29;20158;-59
2023/09/10 02:23:03;;;;;;;;;;;22.00;99.90;;;;;;4898296;29;20139;-60
2023/09/10 02:25:32;;;;;;;17.33;9.50;;;22.00;99.90;;;;;;4901021;29;19927;-59
2023/09/10 02:28:01;;;;;;;12.30;9.07;;;22.00;99.90;;;;;;4901032;29;20060;-59
2023/09/10 02:30:28;;;;;;;14.70;10.93;;;22.00;99.90;;;;;;4884790;29;20060;-59
2023/09/10 02:32:55;;;;;;;15.63;10.45;;;22.00;99.90;;;;;;4895310;29;20053;-60
2023/09/10 02:35:23;;;;;;;15.88;9.93;;;22.00;99.90;;;;;;4897145;29;20056;-60
2023/09/10 02:37:50;;;;;;;13.57;10.75;;;22.00;99.90;;;;;;4900018;29;20115;-59
2023/09/10 02:40:16;;;;;;;16.80;10.60;;;22.00;99.90;;;;;;4898912;29;20048;-59
2023/09/10 02:42:43;;;;;;;16.15;10.38;;;22.00;99.90;;;;;;4898552;29;20519;-59
2023/09/10 02:45:11;;;;;;;12.40;9.60;;;22.00;99.90;;;;;;4903546;29;20481;-60
2023/09/10 02:47:38;;;;;;;12.75;10.02;;;22.00;99.90;;;;;;4904453;29;20052;-59
2023/09/10 02:50:06;;;;;;;20.30;10.75;;;21.90;99.90;;;;;;4907337;29;20044;-59
2023/09/10 02:52:33;;;;;;;16.80;9.18;;;22.00;99.90;;;;;;4900837;29;20052;-59
2023/09/10 02:55:00;;;;;;;16.13;10.23;;;21.90;99.90;;;;;;4908958;29;20055;-63
2023/09/10 02:57:26;;;;;;;12.23;10.00;;;21.90;99.90;;;;;;4909772;29;20051;-58
2023/09/10 02:59:53;;;;;;;11.50;9.18;;;21.80;99.90;;;;;;4911890;29;20523;-59
2023/09/10 03:02:22;;;;;;;12.52;10.05;;;21.70;99.90;;;;;;4905447;29;20048;-60
2023/09/10 03:04:49;;;;;;;20.13;10.73;;;21.60;99.90;;;;;;4911631;29;20051;-58
2023/09/10 03:07:16;;;;;;;12.68;10.93;;;21.50;99.90;;;;;;4915486;29;20548;-58
2023/09/10 03:09:43;;;;;;;14.80;10.20;;;21.50;99.90;;;;;;4905506;29;20112;-59
2023/09/10 03:12:23;;;;;;;13.65;10.27;;;21.60;99.90;;;;;;4906855;29;20055;-59
2023/09/10 03:14:50;;;;;;;16.17;9.73;;;21.60;99.90;;;;;;4910038;29;20381;-59
2023/09/10 03:17:17;;;;;;;12.65;9.60;;;21.60;99.90;;;;;;4903358;29;20050;-60
2023/09/10 03:19:44;;;;;;;15.30;8.82;;;21.50;99.90;;;;;;4913168;29;20135;-60
2023/09/10 03:22:11;;;;;;;15.90;9.25;;;21.60;99.90;;;;;;4911211;29;20060;-59
2023/09/10 03:24:38;;;;;;;15.35;9.38;;;21.60;99.90;;;;;;4909340;29;20048;-59
2023/09/10 03:27:05;;;;;;;14.10;9.25;;;21.60;99.90;;;;;;4903267;29;20492;-59
2023/09/10 03:29:33;;;;;;;12.80;9.30;;;21.60;99.90;;;;;;4910552;29;20567;-60
2023/09/10 03:31:59;;;;;;;10.65;8.70;;;21.60;99.90;;;;;;4905580;29;20122;-59
2023/09/10 03:34:26;;;;;;;9.55;8.55;;;21.60;99.90;;;;;;4910145;29;20099;-59
2023/09/10 03:36:53;;;;;;;11.45;8.25;;;21.50;99.90;;;;;;4910141;29;20056;-59
2023/09/10 03:39:20;;;;;;;13.07;9.05;;;21.50;99.90;;;;;;4896683;29;20107;-59
2023/09/10 03:41:47;;;;;;;15.32;9.07;;;21.50;99.90;;;;;;4899750;29;20095;-59
2023/09/10 03:44:14;;;;;;;11.50;8.88;;;21.40;99.90;;;;;;4912447;29;20045;-59
2023/09/10 03:46:41;;;;;;;20.05;9.13;;;21.40;99.90;;;;;;4892995;29;20135;-59
2023/09/10 03:49:08;;;;;;;13.20;8.75;;;21.40;99.90;;;;;;4912562;29;20066;-60
2023/09/10 03:51:34;;;;;;;12.10;10.07;;;21.40;99.90;;;;;;4910780;29;20128;-62
2023/09/10 03:54:01;;;;;;;10.93;8.32;;;21.40;99.90;;;;;;4912854;29;20052;-59
2023/09/10 03:56:28;;;;;;;16.40;9.77;;;21.50;99.90;;;;;;4912002;29;20048;-60
2023/09/10 03:58:55;;;;;;;15.10;9.52;;;21.50;99.90;;;;;;4912173;29;20090;-59
2023/09/10 04:01:22;;;;;;;17.55;11.25;;;21.40;99.90;;;;;;4910843;29;20052;-59
2023/09/10 04:03:48;;;;;;;12.27;9.40;;;21.40;99.90;;;;;;4908974;29;20075;-59
2023/09/10 04:06:15;;;;;;;22.02;9.88;;;21.30;99.90;;;;;;4893966;29;20048;-59
2023/09/10 04:08:42;;;;;;;17.88;10.30;;;21.20;99.90;;;;;;4910480;29;20052;-59
2023/09/10 04:11:09;;;;;;;14.02;10.80;;;21.10;99.90;;;;;;4908894;29;20076;-59
2023/09/10 04:13:36;;;;;;;15.38;10.38;;;21.10;99.90;;;;;;4902462;29;20044;-59
2023/09/10 04:16:03;;;;;;;15.02;10.20;;;21.10;99.90;;;;;;4907458;29;20075;-59
2023/09/10 04:18:30;;;;;;;17.70;10.05;;;21.10;99.90;;;;;;4886486;29;20048;-59
2023/09/10 04:20:57;;;;;;;14.10;10.02;;;21.20;99.90;;;;;;4899842;29;20117;-59
2023/09/10 04:23:23;;;;;;;17.00;11.82;;;21.20;99.90;;;;;;4908994;29;20071;-59
2023/09/10 04:25:50;;;;;;;9.45;8.45;;;21.20;99.90;;;;;;4907287;29;20045;-59
2023/09/10 04:28:17;;;;;;;16.50;11.27;;;21.10;99.90;;;;;;4900599;29;20075;-59
2023/09/10 04:30:44;;;;;;;16.02;10.10;;;21.00;99.90;;;;;;4902876;29;20096;-59
2023/09/10 04:33:11;;;;;;;17.83;9.82;;;20.90;99.90;;;;;;4910815;29;20094;-59
2023/09/10 04:35:49;;;;;;;17.88;12.55;;;20.90;99.90;;;;;;4910808;29;20056;-60
2023/09/10 04:38:15;;;;;;;23.77;15.88;;;21.00;99.90;;;;;;4904721;29;20112;-58
2023/09/10 04:40:42;;;;;;;25.38;20.02;;;21.00;99.90;;;;;;4909790;29;20492;-59
2023/09/10 04:43:09;;;;;;;33.88;22.65;;;21.00;99.90;;;;;;4907551;29;20481;-59
2023/09/10 04:45:36;;;;;;;33.13;21.42;;;21.00;99.90;;;;;;4904915;29;20045;-59
2023/09/10 04:48:04;;;;;;;27.17;22.48;;;21.00;99.90;;;;;;4906975;29;20052;-59
2023/09/10 04:50:31;;;;;;;30.20;21.90;;;21.00;99.90;;;;;;4908974;29;20127;-60
2023/09/10 04:53:00;;;;;;;27.30;18.35;;;21.00;99.90;;;;;;4907424;29;20055;-59
2023/09/10 04:55:26;;;;;;;21.70;15.10;;;20.90;99.90;;;;;;4905890;29;20112;-60
2023/09/10 04:57:53;;;;;;;21.20;17.23;;;20.80;99.90;;;;;;4558430;29;10000278;-60
2023/09/10 05:00:20;;;;;;;23.83;17.63;;;20.70;99.90;;;;;;4906385;29;20116;-59
2023/09/10 05:02:47;;;;;;;20.48;17.50;;;20.70;99.90;;;;;;4909576;29;20119;-60
2023/09/10 05:05:14;;;;;;;27.20;16.80;;;20.70;99.90;;;;;;4893523;29;20052;-60
2023/09/10 05:07:41;;;;;;;29.92;17.92;;;20.70;99.90;;;;;;4898237;29;20070;-60
2023/09/10 05:10:10;;;;;;;21.60;13.95;;;20.60;99.90;;;;;;4908468;29;20106;-61
2023/09/10 05:12:37;;;;;;;19.05;13.77;;;20.70;99.90;;;;;;4907483;29;20051;-60
2023/09/10 05:15:04;;;;;;;18.90;13.23;;;20.70;99.90;;;;;;4898966;29;20282;-60
2023/09/10 05:17:31;;;;;;;21.70;13.23;;;20.70;99.90;;;;;;4908401;29;20045;-60
2023/09/10 05:19:58;;;;;;;17.05;11.65;;;20.60;99.90;;;;;;4904822;29;20056;-60
2023/09/10 05:22:24;;;;;;;12.77;10.50;;;20.60;99.90;;;;;;4910030;29;20044;-60
2023/09/10 05:24:51;;;;;;;19.33;12.93;;;20.60;99.90;;;;;;4906847;29;20077;-63
2023/09/10 05:27:18;;;;;;;20.00;14.35;;;20.50;99.90;;;;;;4912393;29;20056;-56
2023/09/10 05:29:45;;;;;;;22.63;16.35;;;20.40;99.90;;;;;;4898891;29;20048;-55
2023/09/10 05:32:11;;;;;;;21.63;17.42;;;20.40;99.90;;;;;;4911998;29;20042;-57
2023/09/10 05:34:38;;;;;;;23.20;18.40;;;20.50;99.90;;;;;;4883721;29;20053;-57
2023/09/10 05:37:05;;;;;;;21.27;17.20;;;20.50;99.90;;;;;;4906782;29;20051;-55
2023/09/10 05:39:33;;;;;;;23.98;18.02;;;20.50;99.90;;;;;;4906396;29;20499;-57
2023/09/10 05:42:00;;;;;;;28.98;18.35;;;20.50;99.90;;;;;;4908601;29;20051;-53
2023/09/10 05:44:27;;;;;;;32.28;20.42;;;20.50;99.90;;;;;;4909746;29;20438;-54
2023/09/10 05:46:54;;;;;;;30.42;20.80;;;20.50;99.90;;;;;;4900119;29;20052;-53
2023/09/10 05:49:20;;;;;;;32.85;24.05;;;20.60;99.90;;;;;;4903944;29;20049;-54
2023/09/10 05:51:47;;;;;;;39.78;22.75;;;20.60;99.90;;;;;;4897779;29;20531;-55
2023/09/10 05:54:15;;;;;;;36.83;26.73;;;20.60;99.90;;;;;;4906314;29;20092;-56
2023/09/10 05:56:43;;;;;;;38.72;25.50;;;20.60;99.90;;;;;;4901412;29;20390;-54
2023/09/10 05:59:10;;;;;;;34.38;26.10;;;20.60;99.90;;;;;;4908511;29;20492;-56
2023/09/10 06:01:37;;;;;;;40.58;25.58;;;20.60;99.90;;;;;;4907704;29;20044;-55
2023/09/10 06:04:04;;;;;;;40.25;27.92;;;20.60;99.90;;;;;;4906652;29;20139;-56
2023/09/10 06:06:31;;;;;;;33.92;25.65;;;20.60;99.90;;;;;;4909667;29;20472;-56
2023/09/10 06:08:57;;;;;;;30.83;24.35;;;20.60;99.90;;;;;;4901687;29;20052;-54
2023/09/10 06:11:24;;;;;;;34.40;24.30;;;20.60;99.90;;;;;;4909615;29;20048;-55
2023/09/10 06:13:51;;;;;;;33.40;23.70;;;20.60;99.90;;;;;;4909769;29;20695;-56
2023/09/10 06:16:18;;;;;;;38.55;27.13;;;20.60;99.90;;;;;;4905108;29;20135;-57
2023/09/10 06:18:45;;;;;;;37.33;27.70;;;20.60;99.90;;;;;;4896020;29;20044;-56
2023/09/10 06:21:11;;;;;;;48.55;32.42;;;20.60;99.90;;;;;;4897609;29;20055;-53
2023/09/10 06:23:38;;;;;;;35.65;27.00;;;20.70;99.90;;;;;;4909937;29;20504;-56
2023/09/10 06:26:05;;;;;;;38.08;30.92;;;20.70;99.90;;;;;;4901957;29;20496;-57
2023/09/10 06:28:32;;;;;;;50.25;35.60;;;20.70;99.90;;;;;;4907935;29;20056;-54
2023/09/10 06:30:59;;;;;;;56.85;40.08;;;20.70;99.90;;;;;;4892409;29;20059;-56
2023/09/10 06:33:26;;;;;;;51.75;39.63;;;20.70;99.90;;;;;;4907667;29;20428;-56
2023/09/10 06:35:53;;;;;;;58.67;43.63;;;20.80;99.90;;;;;;4894500;29;20082;-56
2023/09/10 06:38:20;;;;;;;65.63;49.30;;;20.80;99.90;;;;;;4911274;29;20084;-56
2023/09/10 06:40:48;;;;;;;70.85;53.90;;;20.90;99.90;;;;;;4911763;29;20080;-52
2023/09/10 06:43:15;;;;;;;74.07;57.22;;;20.90;99.90;;;;;;4888782;29;20048;-59
2023/09/10 06:45:43;;;;;;;80.35;57.13;;;20.90;99.90;;;;;;4907244;29;20108;-54
2023/09/10 06:48:10;;;;;;;72.55;57.00;;;21.00;99.90;;;;;;4893122;29;20139;-56
2023/09/10 06:50:36;;;;;;;76.78;55.47;;;21.00;99.90;;;;;;4916119;29;20063;-56
2023/09/10 06:53:03;;;;;;;78.38;55.85;;;21.00;99.90;;;;;;4905141;29;20158;-56
2023/09/10 06:55:30;;;;;;;71.72;58.25;;;21.10;99.90;;;;;;4915170;29;20413;-56
2023/09/10 06:57:57;;;;;;;71.68;56.55;;;21.10;99.90;;;;;;4907438;29;20052;-55
2023/09/10 07:00:24;;;;;;;70.70;57.10;;;21.20;99.90;;;;;;4910675;29;20052;-54
2023/09/10 07:02:51;;;;;;;79.43;58.78;;;21.20;99.90;;;;;;4903444;29;20040;-57
2023/09/10 07:05:18;;;;;;;76.75;58.95;;;21.30;99.90;;;;;;4905328;29;20104;-57
2023/09/10 07:07:46;;;;;;;91.60;63.35;;;21.30;99.90;;;;;;4909645;29;20040;-55
2023/09/10 07:10:12;;;;;;;77.65;60.20;;;21.40;99.90;;;;;;4891492;29;20075;-55
2023/09/10 07:12:39;;;;;;;73.63;57.67;;;21.40;99.90;;;;;;4912253;29;20519;-58
2023/09/10 07:15:06;;;;;;;74.45;57.22;;;21.40;99.90;;;;;;4912827;29;20052;-56
2023/09/10 07:17:33;;;;;;;74.43;58.25;;;21.50;99.90;;;;;;4898859;29;20173;-57
2023/09/10 07:20:00;;;;;;;80.43;60.92;;;21.50;99.90;;;;;;4913334;29;20499;-57
2023/09/10 07:22:27;;;;;;;82.25;62.83;;;21.70;99.90;;;;;;4909922;29;20143;-55
2023/09/10 07:24:54;;;;;;;81.28;62.42;;;21.70;99.90;;;;;;4901545;29;20052;-55
2023/09/10 07:27:20;;;;;;;82.53;62.83;;;21.80;99.90;;;;;;4912032;29;20119;-57
2023/09/10 07:29:48;;;;;;;82.00;65.03;;;21.90;99.90;;;;;;4907644;29;20048;-56
2023/09/10 07:32:15;;;;;;;76.97;57.83;;;22.00;99.90;;;;;;4893835;29;20044;-55
2023/09/10 07:34:42;;;;;;;79.53;61.45;;;22.10;99.90;;;;;;4904562;29;20056;-57
2023/09/10 07:37:09;;;;;;;72.93;57.00;;;22.20;99.90;;;;;;4906667;29;20040;-56
2023/09/10 07:39:38;;;;;;;73.05;58.17;;;22.20;99.90;;;;;;4904816;29;20054;-56
2023/09/10 07:42:04;;;;;;;72.30;55.80;;;22.30;99.90;;;;;;4912965;29;20365;-59
2023/09/10 07:44:31;;;;;;;71.75;58.78;;;22.40;99.90;;;;;;4902448;29;20040;-55
2023/09/10 07:46:58;;;;;;;75.10;58.15;;;22.40;99.90;;;;;;4912879;29;20051;-52
2023/09/10 07:49:25;;;;;;;68.80;56.15;;;22.50;99.90;;;;;;4893125;29;20059;-54
2023/09/10 07:51:52;;;;;;;66.07;55.85;;;22.60;99.90;;;;;;4905836;29;20464;-57
2023/09/10 07:54:19;;;;;;;72.03;58.88;;;22.70;99.90;;;;;;4908725;29;20045;-55
2023/09/10 07:56:46;;;;;;;64.25;50.78;;;22.70;99.90;;;;;;4909328;29;20417;-56
2023/09/10 07:59:13;;;;;;;75.85;52.40;;;22.80;99.90;;;;;;4909016;29;20048;-59
2023/09/10 08:01:39;;;;;;;57.42;45.78;;;23.00;99.90;;;;;;4909578;29;20052;-56
2023/09/10 08:04:06;;;;;;;60.75;46.88;;;23.10;99.90;;;;;;4909653;29;20052;-54
2023/09/10 08:06:33;;;;;;;59.95;46.97;;;23.20;99.90;;;;;;4909875;29;20081;-57
2023/09/10 08:09:00;;;;;;;58.10;47.33;;;23.30;99.90;;;;;;4566189;29;10000127;-55
2023/09/10 08:11:27;;;;;;;58.90;47.47;;;23.40;99.90;;;;;;4905803;29;20287;-57
2023/09/10 08:13:54;;;;;;;59.30;44.38;;;23.50;99.90;;;;;;4894708;29;20056;-58
2023/09/10 08:16:21;;;;;;;54.08;43.33;;;23.60;99.90;;;;;;4909136;29;20058;-56
2023/09/10 08:18:48;;;;;;;57.25;45.22;;;23.60;99.90;;;;;;4906597;29;20170;-57
2023/09/10 08:21:15;;;;;;;60.58;45.88;;;23.70;99.90;;;;;;4904836;29;20579;-55
2023/09/10 08:23:42;;;;;;;52.88;42.17;;;23.80;99.90;;;;;;4903162;29;20496;-56
2023/09/10 08:26:09;;;;;;;54.72;43.60;;;23.90;99.90;;;;;;4905041;29;20055;-55
2023/09/10 08:28:36;;;;;;;51.60;42.28;;;23.90;99.90;;;;;;4896269;29;20132;-56
2023/09/10 08:31:04;;;;;;;57.97;47.22;;;24.00;99.90;;;;;;4896185;29;20329;-57
2023/09/10 08:33:31;;;;;;;61.30;49.30;;;24.00;99.90;;;;;;4899415;29;20052;-56
2023/09/10 08:35:57;;;;;;;56.08;45.10;;;24.00;99.90;;;;;;4906786;29;20472;-57
2023/09/10 08:38:24;;;;;;;54.50;43.15;;;24.10;99.90;;;;;;4889077;29;20052;-56
2023/09/10 08:41:15;;;;;;;47.83;37.22;;;24.10;99.90;;;;;;4907526;29;20452;-53
2023/09/10 08:43:51;;;;;;;53.13;42.25;;;24.20;99.90;;;;;;4896318;29;20051;-56
2023/09/10 08:46:18;;;;;;;54.63;38.75;;;24.30;99.90;;;;;;4896267;29;20079;-56
2023/09/10 08:48:45;;;;;;;49.17;36.30;;;24.40;99.90;;;;;;4881840;29;20464;-56
2023/09/10 08:51:12;;;;;;;47.00;35.90;;;24.50;99.90;;;;;;4882239;29;20111;-54
2023/09/10 08:53:39;;;;;;;46.20;34.42;;;24.60;99.90;;;;;;4889316;29;20140;-58
2023/09/10 08:56:08;;;;;;;38.47;30.90;;;24.70;99.90;;;;;;4905637;29;20056;-58
2023/09/10 08:58:36;;;;;;;42.10;31.35;;;24.80;99.90;;;;;;4880431;29;20048;-54
2023/09/10 09:01:04;;;;;;;43.63;31.17;;;24.80;99.90;;;;;;4906685;29;20343;-58
2023/09/10 09:03:30;;;;;;;43.97;30.77;;;24.90;99.90;;;;;;4899132;29;20346;-58
2023/09/10 09:05:58;;;;;;;40.30;30.17;;;25.00;99.90;;;;;;4884546;29;20052;-58
2023/09/10 09:08:29;;;;;;;42.08;29.20;;;25.00;99.90;;;;;;4897379;29;20104;-57
2023/09/10 09:11:03;;;;;;;40.42;29.95;;;25.10;99.90;;;;;;4895494;29;20053;-55
2023/09/10 09:13:34;;;;;;;31.90;24.63;;;25.30;99.90;;;;;;4898337;29;20052;-57
2023/09/10 09:16:02;;;;;;;34.47;25.08;;;25.30;99.90;;;;;;4881916;29;20052;-56
2023/09/10 09:18:29;;;;;;;30.67;25.23;;;25.50;99.90;;;;;;4899907;29;20128;-56
2023/09/10 09:20:59;;;;;;;35.97;28.27;;;25.70;99.90;;;;;;4878469;29;20069;-55
2023/09/10 09:23:29;;;;;;;33.08;23.83;;;26.00;99.90;;;;;;4890442;29;20091;-54
2023/09/10 09:25:56;;;;;;;39.65;24.17;;;26.30;99.90;;;;;;4906435;29;20067;-55
2023/09/10 09:28:23;;;;;;;32.58;23.60;;;26.70;99.90;;;;;;4884571;29;20197;-58
2023/09/10 09:30:51;;;;;;;28.48;22.35;;;27.00;99.90;;;;;;4884617;29;20095;-58
2023/09/10 09:33:18;;;;;;;34.70;20.73;;;27.20;99.90;;;;;;4901667;29;20503;-59
2023/09/10 09:35:45;;;;;;;30.45;22.10;;;27.50;99.90;;;;;;4897252;29;20610;-58
2023/09/10 09:38:15;;;;;;;31.55;22.17;;;27.80;99.90;;;;;;4893466;29;20384;-57
2023/09/10 09:40:43;;;;;;;27.95;21.08;;;27.90;99.90;;;;;;4893652;29;20194;-58
2023/09/10 09:43:11;;;;;;;30.48;20.95;;;28.10;99.90;;;;;;4873806;29;20083;-58
2023/09/10 09:45:46;;;;;;;28.45;20.35;;;28.20;99.90;;;;;;4904824;29;20048;-57
2023/09/10 09:48:13;;;;;;;31.20;20.42;;;28.10;99.90;;;;;;4900752;29;20058;-57
2023/09/10 09:50:40;;;;;;;28.08;19.02;;;28.20;99.90;;;;;;4878438;29;20044;-57
2023/09/10 09:53:07;;;;;;;26.55;18.40;;;28.30;99.90;;;;;;4891702;29;20415;-58
2023/09/10 09:55:34;;;;;;;21.55;18.08;;;28.30;99.90;;;;;;4902809;29;20770;-57
2023/09/10 09:58:02;;;;;;;24.85;18.00;;;28.20;99.90;;;;;;4898600;29;20100;-58
2023/09/10 10:00:29;;;;;;;26.08;17.55;;;28.00;99.90;;;;;;4878477;29;20431;-57
2023/09/10 10:02:56;;;;;;;25.70;17.83;;;27.90;99.90;;;;;;4893659;29;20119;-57
2023/09/10 10:05:23;;;;;;;26.52;17.35;;;27.80;99.90;;;;;;4900020;29;20059;-57
2023/09/10 10:07:50;;;;;;;21.08;16.83;;;27.80;99.90;;;;;;4870738;29;20094;-58
2023/09/10 10:10:18;;;;;;;21.10;15.82;;;27.80;99.90;;;;;;4899515;29;20475;-55
2023/09/10 10:12:46;;;;;;;30.58;18.40;;;27.80;99.90;;;;;;4881872;29;20120;-56
2023/09/10 10:15:13;;;;;;;23.77;15.73;;;27.80;99.90;;;;;;4894616;29;20511;-57
2023/09/10 10:17:42;;;;;;;24.58;19.40;;;27.80;99.90;;;;;;4896705;29;20051;-58
2023/09/10 10:20:10;;;;;;;29.75;21.67;;;27.80;99.90;;;;;;4877804;29;20055;-57
2023/09/10 10:22:36;;;;;;;29.98;20.15;;;27.90;99.90;;;;;;4887671;29;20080;-55
2023/09/10 10:25:04;;;;;;;27.83;20.00;;;27.90;99.90;;;;;;4902749;29;20116;-59
2023/09/10 10:27:33;;;;;;;26.17;18.05;;;27.90;99.90;;;;;;4897679;29;20584;-58
2023/09/10 10:30:03;;;;;;;24.40;18.70;;;28.00;99.90;;;;;;4895489;29;20044;-57
2023/09/10 10:32:38;;;;;;;24.75;16.40;;;28.00;99.90;;;;;;4906207;29;20500;-57
2023/09/10 10:35:06;;;;;;;30.30;20.88;;;28.10;99.90;;;;;;4888708;29;20052;-56
2023/09/10 10:37:52;;;;;;;25.52;18.83;;;28.10;99.90;;;;;;4907259;29;20052;-58
2023/09/10 10:40:21;;;;;;;33.85;18.92;;;28.10;99.90;;;;;;4901220;29;20482;-58
2023/09/10 10:43:10;;;;;;;27.73;17.08;;;28.10;99.90;;;;;;4867287;29;20461;-57
2023/09/10 10:45:37;;;;;;;24.17;16.20;;;28.10;99.90;;;;;;4896584;29;20103;-56
2023/09/10 10:48:17;;;;;;;22.27;17.17;;;28.20;99.90;;;;;;4898575;29;20513;-56
2023/09/10 10:50:44;;;;;;;25.17;16.42;;;28.20;99.90;;;;;;4886324;29;20052;-57
2023/09/10 10:53:18;;;;;;;21.13;12.23;;;28.30;99.90;;;;;;4885357;29;20540;-57
2023/09/10 10:55:45;;;;;;;21.40;11.73;;;28.30;99.90;;;;;;4895419;29;20071;-57
2023/09/10 10:58:12;;;;;;;18.15;10.07;;;28.40;99.90;;;;;;4886388;29;20052;-58
2023/09/10 11:00:39;;;;;;;15.65;10.45;;;28.50;99.90;;;;;;4885964;29;20060;-57
2023/09/10 11:03:13;;;;;;;11.73;6.32;;;28.60;99.90;;;;;;4906927;29;20044;-57
2023/09/10 11:05:57;;;;;;;10.65;5.35;;;28.70;99.90;;;;;;4902662;29;20469;-59
2023/09/10 11:08:24;;;;;;;11.95;5.15;;;28.80;99.90;;;;;;4902315;29;20297;-58
2023/09/10 11:10:51;;;;;;;11.40;5.30;;;28.80;99.90;;;;;;4893719;29;20049;-59
2023/09/10 11:13:19;;;;;;;11.25;5.22;;;28.90;99.90;;;;;;4901968;29;20431;-58
2023/09/10 11:16:04;;;;;;;16.52;5.63;;;29.00;99.90;;;;;;4896612;29;20141;-58
2023/09/10 11:18:37;;;;;;;11.82;5.35;;;29.10;99.90;;;;;;4895687;29;20052;-58
2023/09/10 11:21:07;;;;;;;;;;;29.20;99.90;;;;;;4901055;29;20172;-58
2023/09/10 11:23:35;;;;;;;7.38;5.25;;;29.20;99.90;;;;;;4902382;29;19939;-57
2023/09/10 11:26:14;;;;;;;13.52;6.63;;;29.10;99.90;;;;;;4905048;29;20340;-58
2023/09/10 11:28:49;;;;;;;13.25;5.25;;;29.10;99.90;;;;;;4898485;29;20087;-58
2023/09/10 11:31:33;;;;;;;14.77;4.97;;;29.10;99.90;;;;;;4905936;29;20067;-59
2023/09/10 11:34:16;;;;;;;7.18;5.38;;;29.00;99.90;;;;;;4908728;29;20162;-56
2023/09/10 11:37:06;;;;;;;14.93;5.28;;;29.10;99.90;;;;;;4894772;29;20056;-57
2023/09/10 11:39:34;;;;;;;13.80;5.13;;;29.30;99.90;;;;;;4897226;29;20079;-58
2023/09/10 11:42:02;;;;;;;11.27;5.18;;;29.40;99.90;;;;;;4894475;29;20048;-57
2023/09/10 11:44:29;;;;;;;13.18;4.82;;;29.50;99.90;;;;;;4883912;29;20084;-56
2023/09/10 11:46:56;;;;;;;7.72;4.53;;;29.60;99.90;;;;;;4897190;29;20151;-58
2023/09/10 11:49:24;;;;;;;12.00;4.85;;;29.70;99.90;;;;;;4897021;29;20056;-59
2023/09/10 11:51:52;;;;;;;11.27;5.00;;;29.70;99.90;;;;;;4907543;29;20047;-57
2023/09/10 11:54:20;;;;;;;10.52;5.65;;;29.80;99.90;;;;;;4906320;29;20056;-60
2023/09/10 11:56:47;;;;;;;11.98;4.97;;;29.80;99.90;;;;;;4867598;29;20052;-58
2023/09/10 11:59:20;;;;;;;9.07;4.70;;;29.90;99.90;;;;;;4898388;29;20045;-58
2023/09/10 12:01:47;;;;;;;14.30;4.70;;;30.00;99.90;;;;;;4905032;29;20044;-57
2023/09/10 12:04:16;;;;;;;10.10;4.10;;;30.10;99.90;;;;;;4906061;29;20056;-59
2023/09/10 12:06:44;;;;;;;13.52;5.50;;;30.10;99.90;;;;;;4904593;29;20109;-57
2023/09/10 12:09:13;;;;;;;10.02;4.07;;;30.20;99.90;;;;;;4906604;29;20048;-62
2023/09/10 12:11:39;;;;;;;10.07;4.68;;;30.20;99.90;;;;;;4882277;29;20054;-61
2023/09/10 12:14:06;;;;;;;5.53;4.38;;;30.40;99.90;;;;;;4900742;29;20511;-57
2023/09/10 12:16:33;;;;;;;15.07;4.38;;;30.40;99.90;;;;;;4888409;29;20048;-57
2023/09/10 12:19:00;;;;;;;9.02;4.47;;;30.50;99.90;;;;;;4902569;29;20048;-58
2023/09/10 12:21:27;;;;;;;8.38;4.53;;;30.60;99.90;;;;;;4907069;29;20059;-58
2023/09/10 12:23:54;;;;;;;5.43;3.53;;;30.70;98.90;;;;;;4900002;29;20048;-57
2023/09/10 12:26:21;;;;;;;12.45;3.78;;;30.90;96.90;;;;;;4899584;29;20539;-59
2023/09/10 12:28:50;;;;;;;7.20;3.28;;;31.10;97.60;;;;;;4904275;29;20044;-56
2023/09/10 12:31:18;;;;;;;6.30;3.38;;;31.10;97.40;;;;;;4892138;29;20076;-59
2023/09/10 12:33:45;;;;;;;7.57;3.42;;;31.10;97.00;;;;;;4896506;29;20052;-56
2023/09/10 12:36:12;;;;;;;9.45;3.90;;;31.10;96.30;;;;;;4903893;29;20072;-60